sensor_id;sensor_type;location;lat;lon;timestamp;P1;durP1;ratioP1;P2;durP2;ratioP2
67162;SDS011;54092;53.088;8.850;2024-02-28T00:02:10;21.88;;;9.35;;
67162;SDS011;54092;53.088;8.850;2024-02-28T00:04:36;23.08;;;9.13;;
67162;SDS011;54092;53.088;8.850;2024-02-28T00:07:03;21.23;;;9.93;;
67162;SDS011;54092;53.088;8.850;2024-02-28T00:09:28;25.25;;;9.65;;
67162;SDS011;54092;53.088;8.850;2024-02-28T00:11:54;22.67;;;9.43;;
67162;SDS011;54092;53.088;8.850;2024-02-28T00:14:19;23.80;;;9.73;;
67162;SDS011;54092;53.088;8.850;2024-02-28T00:16:45;21.98;;;9.48;;
67162;SDS011;54092;53.088;8.850;2024-02-28T00:19:12;22.20;;;9.57;;
67162;SDS011;54092;53.088;8.850;2024-02-28T00:21:38;22.10;;;9.68;;
67162;SDS011;54092;53.088;8.850;2024-02-28T00:24:05;22.35;;;9.63;;
67162;SDS011;54092;53.088;8.850;2024-02-28T00:26:31;20.25;;;9.48;;
67162;SDS011;54092;53.088;8.850;2024-02-28T00:28:56;23.77;;;9.95;;
67162;SDS011;54092;53.088;8.850;2024-02-28T00:31:22;22.85;;;9.25;;
67162;SDS011;54092;53.088;8.850;2024-02-28T00:33:47;20.85;;;9.15;;
67162;SDS011;54092;53.088;8.850;2024-02-28T00:36:13;24.05;;;9.40;;
67162;SDS011;54092;53.088;8.850;2024-02-28T00:38:40;20.83;;;8.82;;
67162;SDS011;54092;53.088;8.850;2024-02-28T00:41:05;19.40;;;8.77;;
67162;SDS011;54092;53.088;8.850;2024-02-28T00:43:31;23.38;;;9.90;;
67162;SDS011;54092;53.088;8.850;2024-02-28T00:45:56;25.20;;;10.23;;
67162;SDS011;54092;53.088;8.850;2024-02-28T00:48:23;21.90;;;8.73;;
67162;SDS011;54092;53.088;8.850;2024-02-28T00:50:48;20.80;;;9.18;;
67162;SDS011;54092;53.088;8.850;2024-02-28T00:53:14;23.30;;;9.73;;
67162;SDS011;54092;53.088;8.850;2024-02-28T00:55:39;23.05;;;9.10;;
67162;SDS011;54092;53.088;8.850;2024-02-28T00:58:05;22.60;;;9.35;;
67162;SDS011;54092;53.088;8.850;2024-02-28T01:00:30;22.55;;;9.02;;
67162;SDS011;54092;53.088;8.850;2024-02-28T01:02:56;21.67;;;9.38;;
67162;SDS011;54092;53.088;8.850;2024-02-28T01:05:21;22.00;;;9.23;;
67162;SDS011;54092;53.088;8.850;2024-02-28T01:07:47;22.85;;;9.15;;
67162;SDS011;54092;53.088;8.850;2024-02-28T01:10:12;23.92;;;10.70;;
67162;SDS011;54092;53.088;8.850;2024-02-28T01:12:38;23.45;;;9.48;;
67162;SDS011;54092;53.088;8.850;2024-02-28T01:15:03;26.27;;;9.52;;
67162;SDS011;54092;53.088;8.850;2024-02-28T01:17:29;23.88;;;9.13;;
67162;SDS011;54092;53.088;8.850;2024-02-28T01:19:55;23.30;;;10.05;;
67162;SDS011;54092;53.088;8.850;2024-02-28T01:22:21;21.02;;;9.27;;
67162;SDS011;54092;53.088;8.850;2024-02-28T01:24:46;24.15;;;9.52;;
67162;SDS011;54092;53.088;8.850;2024-02-28T01:27:12;22.45;;;9.38;;
67162;SDS011;54092;53.088;8.850;2024-02-28T01:29:37;23.88;;;10.40;;
67162;SDS011;54092;53.088;8.850;2024-02-28T01:32:03;21.13;;;9.40;;
67162;SDS011;54092;53.088;8.850;2024-02-28T01:34:28;25.67;;;10.13;;
67162;SDS011;54092;53.088;8.850;2024-02-28T01:36:54;22.42;;;9.20;;
67162;SDS011;54092;53.088;8.850;2024-02-28T01:39:19;23.05;;;10.07;;
67162;SDS011;54092;53.088;8.850;2024-02-28T01:41:51;20.02;;;8.57;;
67162;SDS011;54092;53.088;8.850;2024-02-28T01:44:18;25.77;;;9.85;;
67162;SDS011;54092;53.088;8.850;2024-02-28T01:46:43;26.08;;;9.75;;
67162;SDS011;54092;53.088;8.850;2024-02-28T01:49:09;24.10;;;10.07;;
67162;SDS011;54092;53.088;8.850;2024-02-28T01:51:35;23.88;;;9.55;;
67162;SDS011;54092;53.088;8.850;2024-02-28T01:54:01;22.42;;;9.52;;
67162;SDS011;54092;53.088;8.850;2024-02-28T01:56:26;21.95;;;9.15;;
67162;SDS011;54092;53.088;8.850;2024-02-28T01:58:52;26.23;;;9.55;;
67162;SDS011;54092;53.088;8.850;2024-02-28T02:01:19;20.30;;;10.55;;
67162;SDS011;54092;53.088;8.850;2024-02-28T02:03:44;22.10;;;9.32;;
67162;SDS011;54092;53.088;8.850;2024-02-28T02:06:10;22.30;;;10.38;;
67162;SDS011;54092;53.088;8.850;2024-02-28T02:08:36;21.25;;;9.45;;
67162;SDS011;54092;53.088;8.850;2024-02-28T02:11:02;21.52;;;9.77;;
67162;SDS011;54092;53.088;8.850;2024-02-28T02:13:28;27.08;;;10.88;;
67162;SDS011;54092;53.088;8.850;2024-02-28T02:15:53;24.08;;;10.43;;
67162;SDS011;54092;53.088;8.850;2024-02-28T02:18:19;27.75;;;10.38;;
67162;SDS011;54092;53.088;8.850;2024-02-28T02:20:46;25.88;;;10.30;;
67162;SDS011;54092;53.088;8.850;2024-02-28T02:23:19;27.35;;;10.52;;
67162;SDS011;54092;53.088;8.850;2024-02-28T02:25:48;26.92;;;10.65;;
67162;SDS011;54092;53.088;8.850;2024-02-28T02:28:14;26.92;;;11.05;;
67162;SDS011;54092;53.088;8.850;2024-02-28T02:30:40;29.65;;;10.45;;
67162;SDS011;54092;53.088;8.850;2024-02-28T02:33:10;26.85;;;10.35;;
67162;SDS011;54092;53.088;8.850;2024-02-28T02:35:35;27.30;;;10.95;;
67162;SDS011;54092;53.088;8.850;2024-02-28T02:38:02;22.73;;;10.05;;
67162;SDS011;54092;53.088;8.850;2024-02-28T02:40:27;27.42;;;10.13;;
67162;SDS011;54092;53.088;8.850;2024-02-28T02:42:53;30.15;;;11.07;;
67162;SDS011;54092;53.088;8.850;2024-02-28T02:45:18;28.88;;;11.10;;
67162;SDS011;54092;53.088;8.850;2024-02-28T02:47:44;31.80;;;11.55;;
67162;SDS011;54092;53.088;8.850;2024-02-28T02:50:10;32.45;;;11.93;;
67162;SDS011;54092;53.088;8.850;2024-02-28T02:52:35;28.00;;;11.75;;
67162;SDS011;54092;53.088;8.850;2024-02-28T02:55:01;25.60;;;10.95;;
67162;SDS011;54092;53.088;8.850;2024-02-28T02:57:27;26.50;;;11.50;;
67162;SDS011;54092;53.088;8.850;2024-02-28T02:59:53;31.13;;;11.68;;
67162;SDS011;54092;53.088;8.850;2024-02-28T03:02:18;28.17;;;11.23;;
67162;SDS011;54092;53.088;8.850;2024-02-28T03:04:44;30.17;;;12.00;;
67162;SDS011;54092;53.088;8.850;2024-02-28T03:07:09;26.00;;;11.80;;
67162;SDS011;54092;53.088;8.850;2024-02-28T03:09:35;34.60;;;12.38;;
67162;SDS011;54092;53.088;8.850;2024-02-28T03:12:00;29.85;;;12.25;;
67162;SDS011;54092;53.088;8.850;2024-02-28T03:14:26;34.67;;;13.23;;
67162;SDS011;54092;53.088;8.850;2024-02-28T03:16:52;30.05;;;11.82;;
67162;SDS011;54092;53.088;8.850;2024-02-28T03:19:18;31.70;;;12.57;;
67162;SDS011;54092;53.088;8.850;2024-02-28T03:21:44;31.73;;;12.80;;
67162;SDS011;54092;53.088;8.850;2024-02-28T03:24:10;32.95;;;12.57;;
67162;SDS011;54092;53.088;8.850;2024-02-28T03:26:35;32.65;;;12.70;;
67162;SDS011;54092;53.088;8.850;2024-02-28T03:29:01;33.47;;;13.00;;
67162;SDS011;54092;53.088;8.850;2024-02-28T03:31:27;30.35;;;11.63;;
67162;SDS011;54092;53.088;8.850;2024-02-28T03:33:52;29.30;;;11.60;;
67162;SDS011;54092;53.088;8.850;2024-02-28T03:36:18;28.98;;;11.88;;
67162;SDS011;54092;53.088;8.850;2024-02-28T03:38:44;30.88;;;12.35;;
67162;SDS011;54092;53.088;8.850;2024-02-28T03:41:09;31.70;;;12.95;;
67162;SDS011;54092;53.088;8.850;2024-02-28T03:43:35;30.63;;;12.48;;
67162;SDS011;54092;53.088;8.850;2024-02-28T03:46:00;31.30;;;13.55;;
67162;SDS011;54092;53.088;8.850;2024-02-28T03:48:26;31.48;;;13.32;;
67162;SDS011;54092;53.088;8.850;2024-02-28T03:50:52;36.28;;;14.40;;
67162;SDS011;54092;53.088;8.850;2024-02-28T03:53:17;35.83;;;14.98;;
67162;SDS011;54092;53.088;8.850;2024-02-28T03:55:43;38.67;;;14.07;;
67162;SDS011;54092;53.088;8.850;2024-02-28T03:58:11;33.35;;;14.02;;
67162;SDS011;54092;53.088;8.850;2024-02-28T04:00:37;32.55;;;13.30;;
67162;SDS011;54092;53.088;8.850;2024-02-28T04:03:03;28.15;;;11.85;;
67162;SDS011;54092;53.088;8.850;2024-02-28T04:05:30;28.65;;;12.38;;
67162;SDS011;54092;53.088;8.850;2024-02-28T04:07:55;30.60;;;12.90;;
67162;SDS011;54092;53.088;8.850;2024-02-28T04:10:21;32.00;;;13.57;;
67162;SDS011;54092;53.088;8.850;2024-02-28T04:12:46;30.77;;;12.90;;
67162;SDS011;54092;53.088;8.850;2024-02-28T04:15:12;31.88;;;12.65;;
67162;SDS011;54092;53.088;8.850;2024-02-28T04:17:38;32.72;;;12.65;;
67162;SDS011;54092;53.088;8.850;2024-02-28T04:20:07;35.50;;;13.38;;
67162;SDS011;54092;53.088;8.850;2024-02-28T04:22:36;31.00;;;14.02;;
67162;SDS011;54092;53.088;8.850;2024-02-28T04:25:03;33.65;;;12.80;;
67162;SDS011;54092;53.088;8.850;2024-02-28T04:27:29;31.35;;;13.30;;
67162;SDS011;54092;53.088;8.850;2024-02-28T04:29:55;37.45;;;14.38;;
67162;SDS011;54092;53.088;8.850;2024-02-28T04:32:20;36.03;;;12.73;;
67162;SDS011;54092;53.088;8.850;2024-02-28T04:34:46;34.45;;;13.15;;
67162;SDS011;54092;53.088;8.850;2024-02-28T04:37:11;34.75;;;13.35;;
67162;SDS011;54092;53.088;8.850;2024-02-28T04:39:37;38.08;;;13.32;;
67162;SDS011;54092;53.088;8.850;2024-02-28T04:42:02;34.80;;;13.32;;
67162;SDS011;54092;53.088;8.850;2024-02-28T04:44:28;32.58;;;12.40;;
67162;SDS011;54092;53.088;8.850;2024-02-28T04:46:54;38.05;;;14.20;;
67162;SDS011;54092;53.088;8.850;2024-02-28T04:49:19;34.95;;;14.57;;
67162;SDS011;54092;53.088;8.850;2024-02-28T04:51:45;36.00;;;13.43;;
67162;SDS011;54092;53.088;8.850;2024-02-28T04:54:10;33.95;;;13.57;;
67162;SDS011;54092;53.088;8.850;2024-02-28T04:56:42;32.95;;;12.65;;
67162;SDS011;54092;53.088;8.850;2024-02-28T04:59:08;34.38;;;12.75;;
67162;SDS011;54092;53.088;8.850;2024-02-28T05:01:35;35.92;;;13.70;;
67162;SDS011;54092;53.088;8.850;2024-02-28T05:04:04;35.13;;;13.68;;
67162;SDS011;54092;53.088;8.850;2024-02-28T05:06:32;35.28;;;14.48;;
67162;SDS011;54092;53.088;8.850;2024-02-28T05:08:58;39.97;;;14.88;;
67162;SDS011;54092;53.088;8.850;2024-02-28T05:11:23;35.28;;;12.40;;
67162;SDS011;54092;53.088;8.850;2024-02-28T05:13:49;34.72;;;13.63;;
67162;SDS011;54092;53.088;8.850;2024-02-28T05:16:15;36.92;;;13.93;;
67162;SDS011;54092;53.088;8.850;2024-02-28T05:18:41;33.97;;;14.50;;
67162;SDS011;54092;53.088;8.850;2024-02-28T05:21:07;38.25;;;14.85;;
67162;SDS011;54092;53.088;8.850;2024-02-28T05:23:32;37.35;;;13.43;;
67162;SDS011;54092;53.088;8.850;2024-02-28T05:25:58;38.63;;;14.23;;
67162;SDS011;54092;53.088;8.850;2024-02-28T05:28:28;36.72;;;13.68;;
67162;SDS011;54092;53.088;8.850;2024-02-28T05:30:55;41.67;;;14.40;;
67162;SDS011;54092;53.088;8.850;2024-02-28T05:33:20;44.17;;;15.98;;
67162;SDS011;54092;53.088;8.850;2024-02-28T05:35:46;55.58;;;17.88;;
67162;SDS011;54092;53.088;8.850;2024-02-28T05:38:11;48.03;;;15.45;;
67162;SDS011;54092;53.088;8.850;2024-02-28T05:40:37;47.90;;;17.02;;
67162;SDS011;54092;53.088;8.850;2024-02-28T05:43:02;50.55;;;17.83;;
67162;SDS011;54092;53.088;8.850;2024-02-28T05:45:29;56.85;;;17.65;;
67162;SDS011;54092;53.088;8.850;2024-02-28T05:47:54;51.78;;;16.35;;
67162;SDS011;54092;53.088;8.850;2024-02-28T05:50:20;55.38;;;16.85;;
67162;SDS011;54092;53.088;8.850;2024-02-28T05:52:45;53.72;;;16.67;;
67162;SDS011;54092;53.088;8.850;2024-02-28T05:55:11;48.22;;;17.45;;
67162;SDS011;54092;53.088;8.850;2024-02-28T05:57:37;60.33;;;18.73;;
67162;SDS011;54092;53.088;8.850;2024-02-28T06:00:03;54.80;;;17.00;;
67162;SDS011;54092;53.088;8.850;2024-02-28T06:02:34;62.60;;;18.42;;
67162;SDS011;54092;53.088;8.850;2024-02-28T06:05:04;55.60;;;16.17;;
67162;SDS011;54092;53.088;8.850;2024-02-28T06:07:30;62.15;;;18.30;;
67162;SDS011;54092;53.088;8.850;2024-02-28T06:09:55;60.65;;;17.55;;
67162;SDS011;54092;53.088;8.850;2024-02-28T06:12:21;55.92;;;16.65;;
67162;SDS011;54092;53.088;8.850;2024-02-28T06:14:46;56.53;;;17.30;;
67162;SDS011;54092;53.088;8.850;2024-02-28T06:17:12;46.75;;;16.52;;
67162;SDS011;54092;53.088;8.850;2024-02-28T06:19:38;59.40;;;16.17;;
67162;SDS011;54092;53.088;8.850;2024-02-28T06:22:04;59.30;;;17.23;;
67162;SDS011;54092;53.088;8.850;2024-02-28T06:24:29;55.45;;;17.48;;
67162;SDS011;54092;53.088;8.850;2024-02-28T06:26:55;52.72;;;16.55;;
67162;SDS011;54092;53.088;8.850;2024-02-28T06:29:20;56.88;;;17.67;;
67162;SDS011;54092;53.088;8.850;2024-02-28T06:31:50;57.60;;;17.10;;
67162;SDS011;54092;53.088;8.850;2024-02-28T06:34:16;53.20;;;16.27;;
67162;SDS011;54092;53.088;8.850;2024-02-28T06:36:42;65.38;;;18.98;;
67162;SDS011;54092;53.088;8.850;2024-02-28T06:39:08;52.75;;;17.55;;
67162;SDS011;54092;53.088;8.850;2024-02-28T06:41:33;64.13;;;17.70;;
67162;SDS011;54092;53.088;8.850;2024-02-28T06:43:58;53.65;;;16.90;;
67162;SDS011;54092;53.088;8.850;2024-02-28T06:46:24;63.65;;;16.27;;
67162;SDS011;54092;53.088;8.850;2024-02-28T06:48:50;61.13;;;18.75;;
67162;SDS011;54092;53.088;8.850;2024-02-28T06:51:16;63.38;;;17.48;;
67162;SDS011;54092;53.088;8.850;2024-02-28T06:53:42;49.15;;;16.33;;
67162;SDS011;54092;53.088;8.850;2024-02-28T06:56:07;60.00;;;17.25;;
67162;SDS011;54092;53.088;8.850;2024-02-28T06:58:34;57.80;;;17.77;;
67162;SDS011;54092;53.088;8.850;2024-02-28T07:00:59;62.67;;;18.30;;
67162;SDS011;54092;53.088;8.850;2024-02-28T07:03:24;49.10;;;16.13;;
67162;SDS011;54092;53.088;8.850;2024-02-28T07:05:50;47.63;;;14.85;;
67162;SDS011;54092;53.088;8.850;2024-02-28T07:08:16;58.75;;;16.38;;
67162;SDS011;54092;53.088;8.850;2024-02-28T07:10:42;45.67;;;15.32;;
67162;SDS011;54092;53.088;8.850;2024-02-28T07:13:09;48.28;;;16.27;;
67162;SDS011;54092;53.088;8.850;2024-02-28T07:15:35;55.65;;;16.67;;
67162;SDS011;54092;53.088;8.850;2024-02-28T07:18:01;47.03;;;15.65;;
67162;SDS011;54092;53.088;8.850;2024-02-28T07:20:26;48.17;;;16.30;;
67162;SDS011;54092;53.088;8.850;2024-02-28T07:22:52;41.03;;;14.32;;
67162;SDS011;54092;53.088;8.850;2024-02-28T07:25:17;42.28;;;14.70;;
67162;SDS011;54092;53.088;8.850;2024-02-28T07:27:42;45.60;;;14.43;;
67162;SDS011;54092;53.088;8.850;2024-02-28T07:30:08;51.83;;;16.55;;
67162;SDS011;54092;53.088;8.850;2024-02-28T07:32:34;45.22;;;15.25;;
67162;SDS011;54092;53.088;8.850;2024-02-28T07:35:02;38.03;;;13.57;;
67162;SDS011;54092;53.088;8.850;2024-02-28T07:37:28;41.83;;;13.32;;
67162;SDS011;54092;53.088;8.850;2024-02-28T07:39:54;37.97;;;11.50;;
67162;SDS011;54092;53.088;8.850;2024-02-28T07:42:19;33.17;;;12.68;;
67162;SDS011;54092;53.088;8.850;2024-02-28T07:44:45;35.55;;;11.65;;
67162;SDS011;54092;53.088;8.850;2024-02-28T07:47:10;35.85;;;12.63;;
67162;SDS011;54092;53.088;8.850;2024-02-28T07:49:36;33.25;;;12.02;;
67162;SDS011;54092;53.088;8.850;2024-02-28T07:52:01;27.70;;;10.77;;
67162;SDS011;54092;53.088;8.850;2024-02-28T07:54:27;33.78;;;11.90;;
67162;SDS011;54092;53.088;8.850;2024-02-28T07:56:52;29.60;;;11.02;;
67162;SDS011;54092;53.088;8.850;2024-02-28T07:59:18;29.20;;;11.05;;
67162;SDS011;54092;53.088;8.850;2024-02-28T08:01:43;32.95;;;12.38;;
67162;SDS011;54092;53.088;8.850;2024-02-28T08:04:09;31.63;;;11.88;;
67162;SDS011;54092;53.088;8.850;2024-02-28T08:06:39;32.95;;;12.77;;
67162;SDS011;54092;53.088;8.850;2024-02-28T08:09:05;34.08;;;13.20;;
67162;SDS011;54092;53.088;8.850;2024-02-28T08:11:30;28.05;;;10.57;;
67162;SDS011;54092;53.088;8.850;2024-02-28T08:13:56;24.48;;;9.45;;
67162;SDS011;54092;53.088;8.850;2024-02-28T08:16:21;24.40;;;9.65;;
67162;SDS011;54092;53.088;8.850;2024-02-28T08:18:47;24.13;;;10.40;;
67162;SDS011;54092;53.088;8.850;2024-02-28T08:21:12;18.58;;;8.63;;
67162;SDS011;54092;53.088;8.850;2024-02-28T08:23:38;26.88;;;9.82;;
67162;SDS011;54092;53.088;8.850;2024-02-28T08:26:03;25.13;;;8.88;;
67162;SDS011;54092;53.088;8.850;2024-02-28T08:28:29;25.30;;;10.55;;
67162;SDS011;54092;53.088;8.850;2024-02-28T08:30:54;27.73;;;10.48;;
67162;SDS011;54092;53.088;8.850;2024-02-28T08:33:20;28.58;;;10.65;;
67162;SDS011;54092;53.088;8.850;2024-02-28T08:35:45;24.95;;;10.15;;
67162;SDS011;54092;53.088;8.850;2024-02-28T08:38:11;23.58;;;9.52;;
67162;SDS011;54092;53.088;8.850;2024-02-28T08:40:37;29.48;;;10.85;;
67162;SDS011;54092;53.088;8.850;2024-02-28T08:43:02;28.30;;;9.85;;
67162;SDS011;54092;53.088;8.850;2024-02-28T08:45:28;22.63;;;9.13;;
67162;SDS011;54092;53.088;8.850;2024-02-28T08:47:53;23.67;;;8.70;;
67162;SDS011;54092;53.088;8.850;2024-02-28T08:50:19;26.08;;;10.32;;
67162;SDS011;54092;53.088;8.850;2024-02-28T08:52:44;25.40;;;10.30;;
67162;SDS011;54092;53.088;8.850;2024-02-28T08:55:10;23.00;;;8.95;;
67162;SDS011;54092;53.088;8.850;2024-02-28T08:57:35;22.83;;;9.38;;
67162;SDS011;54092;53.088;8.850;2024-02-28T09:00:01;24.83;;;9.63;;
67162;SDS011;54092;53.088;8.850;2024-02-28T09:02:27;24.85;;;10.57;;
67162;SDS011;54092;53.088;8.850;2024-02-28T09:04:52;21.60;;;9.60;;
67162;SDS011;54092;53.088;8.850;2024-02-28T09:07:21;23.57;;;9.47;;
67162;SDS011;54092;53.088;8.850;2024-02-28T09:09:47;23.55;;;9.50;;
67162;SDS011;54092;53.088;8.850;2024-02-28T09:12:14;23.40;;;9.43;;
67162;SDS011;54092;53.088;8.850;2024-02-28T09:14:39;26.33;;;11.13;;
67162;SDS011;54092;53.088;8.850;2024-02-28T09:17:05;23.27;;;9.70;;
67162;SDS011;54092;53.088;8.850;2024-02-28T09:19:31;28.33;;;10.93;;
67162;SDS011;54092;53.088;8.850;2024-02-28T09:21:57;25.88;;;10.10;;
67162;SDS011;54092;53.088;8.850;2024-02-28T09:24:23;30.92;;;12.00;;
67162;SDS011;54092;53.088;8.850;2024-02-28T09:26:49;24.77;;;9.90;;
67162;SDS011;54092;53.088;8.850;2024-02-28T09:29:14;27.05;;;10.35;;
67162;SDS011;54092;53.088;8.850;2024-02-28T09:31:40;25.13;;;9.52;;
67162;SDS011;54092;53.088;8.850;2024-02-28T09:34:05;22.08;;;9.98;;
67162;SDS011;54092;53.088;8.850;2024-02-28T09:36:40;23.73;;;9.95;;
67162;SDS011;54092;53.088;8.850;2024-02-28T09:39:10;22.10;;;9.38;;
67162;SDS011;54092;53.088;8.850;2024-02-28T09:41:37;25.23;;;10.55;;
67162;SDS011;54092;53.088;8.850;2024-02-28T09:44:03;27.10;;;11.20;;
67162;SDS011;54092;53.088;8.850;2024-02-28T09:46:31;22.08;;;9.55;;
67162;SDS011;54092;53.088;8.850;2024-02-28T09:48:59;22.83;;;9.35;;
67162;SDS011;54092;53.088;8.850;2024-02-28T09:51:31;23.33;;;10.20;;
67162;SDS011;54092;53.088;8.850;2024-02-28T09:54:02;20.42;;;9.55;;
67162;SDS011;54092;53.088;8.850;2024-02-28T09:56:29;27.15;;;10.80;;
67162;SDS011;54092;53.088;8.850;2024-02-28T09:58:54;24.27;;;9.82;;
67162;SDS011;54092;53.088;8.850;2024-02-28T10:01:21;24.23;;;9.90;;
67162;SDS011;54092;53.088;8.850;2024-02-28T10:03:47;28.75;;;10.38;;
67162;SDS011;54092;53.088;8.850;2024-02-28T10:06:16;25.70;;;10.52;;
67162;SDS011;54092;53.088;8.850;2024-02-28T10:08:42;22.40;;;9.05;;
67162;SDS011;54092;53.088;8.850;2024-02-28T10:11:07;27.25;;;10.77;;
67162;SDS011;54092;53.088;8.850;2024-02-28T10:13:33;24.10;;;10.50;;
67162;SDS011;54092;53.088;8.850;2024-02-28T10:15:58;25.50;;;11.73;;
67162;SDS011;54092;53.088;8.850;2024-02-28T10:18:25;26.65;;;10.32;;
67162;SDS011;54092;53.088;8.850;2024-02-28T10:20:51;26.55;;;10.90;;
67162;SDS011;54092;53.088;8.850;2024-02-28T10:23:16;27.65;;;11.52;;
67162;SDS011;54092;53.088;8.850;2024-02-28T10:25:43;23.92;;;9.75;;
67162;SDS011;54092;53.088;8.850;2024-02-28T10:28:12;29.35;;;10.32;;
67162;SDS011;54092;53.088;8.850;2024-02-28T10:30:40;27.02;;;11.02;;
67162;SDS011;54092;53.088;8.850;2024-02-28T10:33:13;26.88;;;11.15;;
67162;SDS011;54092;53.088;8.850;2024-02-28T10:35:39;31.17;;;10.88;;
67162;SDS011;54092;53.088;8.850;2024-02-28T10:38:06;27.40;;;10.98;;
67162;SDS011;54092;53.088;8.850;2024-02-28T10:40:31;26.33;;;11.48;;
67162;SDS011;54092;53.088;8.850;2024-02-28T10:42:57;28.13;;;11.10;;
67162;SDS011;54092;53.088;8.850;2024-02-28T10:45:24;23.98;;;9.68;;
67162;SDS011;54092;53.088;8.850;2024-02-28T10:47:51;24.77;;;10.50;;
67162;SDS011;54092;53.088;8.850;2024-02-28T10:50:17;25.15;;;10.82;;
67162;SDS011;54092;53.088;8.850;2024-02-28T10:52:43;29.88;;;11.52;;
67162;SDS011;54092;53.088;8.850;2024-02-28T10:55:11;29.92;;;11.77;;
67162;SDS011;54092;53.088;8.850;2024-02-28T10:57:38;29.77;;;10.88;;
67162;SDS011;54092;53.088;8.850;2024-02-28T11:00:05;25.77;;;11.80;;
67162;SDS011;54092;53.088;8.850;2024-02-28T11:02:31;27.42;;;11.57;;
67162;SDS011;54092;53.088;8.850;2024-02-28T11:04:58;28.70;;;10.32;;
67162;SDS011;54092;53.088;8.850;2024-02-28T11:07:26;34.92;;;12.25;;
67162;SDS011;54092;53.088;8.850;2024-02-28T11:09:55;28.45;;;12.13;;
67162;SDS011;54092;53.088;8.850;2024-02-28T11:12:26;30.17;;;11.27;;
67162;SDS011;54092;53.088;8.850;2024-02-28T11:14:57;31.52;;;12.40;;
67162;SDS011;54092;53.088;8.850;2024-02-28T11:17:28;28.08;;;11.77;;
67162;SDS011;54092;53.088;8.850;2024-02-28T11:19:55;28.27;;;11.70;;
67162;SDS011;54092;53.088;8.850;2024-02-28T11:22:21;26.60;;;11.68;;
67162;SDS011;54092;53.088;8.850;2024-02-28T11:24:47;28.30;;;11.20;;
67162;SDS011;54092;53.088;8.850;2024-02-28T11:27:14;26.52;;;11.73;;
67162;SDS011;54092;53.088;8.850;2024-02-28T11:29:40;28.80;;;12.30;;
67162;SDS011;54092;53.088;8.850;2024-02-28T11:32:06;27.42;;;11.57;;
67162;SDS011;54092;53.088;8.850;2024-02-28T11:34:31;25.95;;;12.23;;
67162;SDS011;54092;53.088;8.850;2024-02-28T11:36:58;30.58;;;12.25;;
67162;SDS011;54092;53.088;8.850;2024-02-28T11:39:24;29.45;;;11.63;;
67162;SDS011;54092;53.088;8.850;2024-02-28T11:41:50;28.67;;;12.20;;
67162;SDS011;54092;53.088;8.850;2024-02-28T11:44:15;30.92;;;12.30;;
67162;SDS011;54092;53.088;8.850;2024-02-28T11:46:47;29.63;;;12.55;;
67162;SDS011;54092;53.088;8.850;2024-02-28T11:49:13;33.30;;;12.93;;
67162;SDS011;54092;53.088;8.850;2024-02-28T11:51:43;34.70;;;13.80;;
67162;SDS011;54092;53.088;8.850;2024-02-28T11:54:09;36.10;;;13.15;;
67162;SDS011;54092;53.088;8.850;2024-02-28T11:56:37;34.30;;;13.32;;
67162;SDS011;54092;53.088;8.850;2024-02-28T11:59:03;32.92;;;11.88;;
67162;SDS011;54092;53.088;8.850;2024-02-28T12:03:59;33.03;;;12.75;;
67162;SDS011;54092;53.088;8.850;2024-02-28T12:06:26;35.78;;;13.07;;
67162;SDS011;54092;53.088;8.850;2024-02-28T12:08:51;32.30;;;12.45;;
67162;SDS011;54092;53.088;8.850;2024-02-28T12:11:18;38.92;;;15.00;;
67162;SDS011;54092;53.088;8.850;2024-02-28T12:13:44;32.70;;;13.77;;
67162;SDS011;54092;53.088;8.850;2024-02-28T12:16:09;37.83;;;14.43;;
67162;SDS011;54092;53.088;8.850;2024-02-28T12:18:35;38.10;;;13.68;;
67162;SDS011;54092;53.088;8.850;2024-02-28T12:21:01;37.00;;;12.50;;
67162;SDS011;54092;53.088;8.850;2024-02-28T12:23:27;34.28;;;13.63;;
67162;SDS011;54092;53.088;8.850;2024-02-28T12:25:52;38.10;;;12.77;;
67162;SDS011;54092;53.088;8.850;2024-02-28T12:28:18;39.15;;;13.70;;
67162;SDS011;54092;53.088;8.850;2024-02-28T12:30:43;42.40;;;13.27;;
67162;SDS011;54092;53.088;8.850;2024-02-28T12:33:10;38.75;;;13.30;;
67162;SDS011;54092;53.088;8.850;2024-02-28T12:35:38;37.10;;;13.40;;
67162;SDS011;54092;53.088;8.850;2024-02-28T12:38:04;38.67;;;13.30;;
67162;SDS011;54092;53.088;8.850;2024-02-28T12:40:30;34.38;;;13.35;;
67162;SDS011;54092;53.088;8.850;2024-02-28T12:42:56;32.60;;;13.55;;
67162;SDS011;54092;53.088;8.850;2024-02-28T12:45:21;36.03;;;12.85;;
67162;SDS011;54092;53.088;8.850;2024-02-28T12:47:47;40.35;;;13.25;;
67162;SDS011;54092;53.088;8.850;2024-02-28T12:50:13;38.15;;;14.85;;
67162;SDS011;54092;53.088;8.850;2024-02-28T12:52:38;39.15;;;13.90;;
67162;SDS011;54092;53.088;8.850;2024-02-28T12:55:04;35.25;;;13.02;;
67162;SDS011;54092;53.088;8.850;2024-02-28T12:57:30;38.80;;;14.25;;
67162;SDS011;54092;53.088;8.850;2024-02-28T12:59:55;32.88;;;13.73;;
67162;SDS011;54092;53.088;8.850;2024-02-28T13:02:21;32.58;;;12.73;;
67162;SDS011;54092;53.088;8.850;2024-02-28T13:04:47;35.35;;;13.93;;
67162;SDS011;54092;53.088;8.850;2024-02-28T13:07:13;32.75;;;11.93;;
67162;SDS011;54092;53.088;8.850;2024-02-28T13:09:39;33.97;;;13.57;;
67162;SDS011;54092;53.088;8.850;2024-02-28T13:12:04;28.33;;;13.13;;
67162;SDS011;54092;53.088;8.850;2024-02-28T13:14:30;33.03;;;13.32;;
67162;SDS011;54092;53.088;8.850;2024-02-28T13:16:57;30.95;;;12.43;;
67162;SDS011;54092;53.088;8.850;2024-02-28T13:19:23;34.92;;;13.73;;
67162;SDS011;54092;53.088;8.850;2024-02-28T13:21:49;33.78;;;12.77;;
67162;SDS011;54092;53.088;8.850;2024-02-28T13:24:14;37.47;;;14.77;;
67162;SDS011;54092;53.088;8.850;2024-02-28T13:26:41;32.15;;;14.05;;
67162;SDS011;54092;53.088;8.850;2024-02-28T13:29:06;33.75;;;13.90;;
67162;SDS011;54092;53.088;8.850;2024-02-28T13:31:32;39.60;;;14.45;;
67162;SDS011;54092;53.088;8.850;2024-02-28T13:33:58;36.25;;;14.73;;
67162;SDS011;54092;53.088;8.850;2024-02-28T13:36:25;32.90;;;13.27;;
67162;SDS011;54092;53.088;8.850;2024-02-28T13:38:51;33.92;;;12.93;;
67162;SDS011;54092;53.088;8.850;2024-02-28T13:41:16;31.50;;;13.93;;
67162;SDS011;54092;53.088;8.850;2024-02-28T13:43:42;34.70;;;15.15;;
67162;SDS011;54092;53.088;8.850;2024-02-28T13:46:07;35.40;;;14.90;;
67162;SDS011;54092;53.088;8.850;2024-02-28T13:48:35;38.42;;;15.02;;
67162;SDS011;54092;53.088;8.850;2024-02-28T13:51:00;32.90;;;14.35;;
67162;SDS011;54092;53.088;8.850;2024-02-28T13:53:29;28.58;;;14.38;;
67162;SDS011;54092;53.088;8.850;2024-02-28T13:55:54;39.15;;;13.55;;
67162;SDS011;54092;53.088;8.850;2024-02-28T13:58:20;34.08;;;13.85;;
67162;SDS011;54092;53.088;8.850;2024-02-28T14:00:45;35.65;;;14.38;;
67162;SDS011;54092;53.088;8.850;2024-02-28T14:03:12;36.72;;;14.70;;
67162;SDS011;54092;53.088;8.850;2024-02-28T14:05:37;36.28;;;14.18;;
67162;SDS011;54092;53.088;8.850;2024-02-28T14:08:03;37.88;;;14.52;;
67162;SDS011;54092;53.088;8.850;2024-02-28T14:14:10;39.70;;;14.60;;
67162;SDS011;54092;53.088;8.850;2024-02-28T14:16:39;37.85;;;16.58;;
67162;SDS011;54092;53.088;8.850;2024-02-28T14:19:04;46.17;;;16.65;;
67162;SDS011;54092;53.088;8.850;2024-02-28T14:21:30;39.88;;;15.23;;
67162;SDS011;54092;53.088;8.850;2024-02-28T14:23:55;37.40;;;14.75;;